Arlington, Texas
Current Conditions -  °F | °C
As of 8:15 PM on Thursday 20 Nov 2014 (Local Time) from KGPM Reporting Station
Clear Clear  
Wind Chill: 63°   Ceiling: Unl
Heat Index: 63°   Visibility: 10mi
Dew Point: 56°   Wind: 8mph
Humidity: 80%   Direction: 150°SSE
Pressure: 30.04"   Gusts: NA
Location:  32.74°N, 97.11°W
Report Text: KGPM 210215Z AUTO 15007KT 10SM CLR 17/14 A3004 RMK AO2 T01710136
Loading
Personal Weather Stations






























Interactive Weather Map New forecast layout! Learn more

10-Day Weather Forecast

Advertisements
Track Severe Weather on mobile